createdAt,value
2017-08-01T00:00:22.855Z,19.85
2017-08-01T00:01:20.117Z,19.85
2017-08-01T00:02:17.416Z,19.84
2017-08-01T00:03:14.682Z,19.84
2017-08-01T00:04:12.076Z,19.85
2017-08-01T00:05:09.313Z,19.83
2017-08-01T00:06:06.619Z,19.83
2017-08-01T00:07:04.017Z,19.83
2017-08-01T00:08:01.356Z,19.83
2017-08-01T00:08:58.605Z,19.81
2017-08-01T00:09:55.878Z,19.81
2017-08-01T00:10:53.141Z,19.81
2017-08-01T00:11:50.503Z,19.80
2017-08-01T00:12:47.773Z,19.79
2017-08-01T00:13:45.149Z,19.79
2017-08-01T00:14:42.463Z,19.78
2017-08-01T00:15:39.769Z,19.78
2017-08-01T00:16:37.004Z,19.77
2017-08-01T00:17:34.420Z,19.76
2017-08-01T00:18:31.695Z,19.76
2017-08-01T00:19:28.958Z,19.75
2017-08-01T00:20:26.232Z,19.76
2017-08-01T00:21:23.562Z,19.74
2017-08-01T00:22:20.819Z,19.73
2017-08-01T00:23:18.146Z,19.73
2017-08-01T00:24:15.433Z,19.74
2017-08-01T00:25:12.719Z,19.73
2017-08-01T00:26:10.001Z,19.72
2017-08-01T00:27:07.265Z,19.71
2017-08-01T00:28:04.582Z,19.70
2017-08-01T00:29:01.956Z,19.71
2017-08-01T00:29:59.193Z,19.69
2017-08-01T00:30:56.545Z,19.69
2017-08-01T00:31:53.823Z,19.68
2017-08-01T00:32:51.123Z,19.67
2017-08-01T00:33:48.402Z,19.67
2017-08-01T00:34:45.843Z,19.67
2017-08-01T00:35:43.136Z,19.66
2017-08-01T00:36:40.510Z,19.65
2017-08-01T00:37:37.769Z,19.64
2017-08-01T00:38:35.057Z,19.65
2017-08-01T00:39:32.317Z,19.63
2017-08-01T00:40:29.672Z,19.62
2017-08-01T00:41:26.899Z,19.62
2017-08-01T00:42:24.220Z,19.61
2017-08-01T00:43:21.533Z,19.61
2017-08-01T00:44:18.843Z,19.60
2017-08-01T00:45:16.140Z,19.61
2017-08-01T00:46:13.415Z,19.60
2017-08-01T00:47:10.680Z,19.59
2017-08-01T00:48:08.340Z,19.58
2017-08-01T00:49:05.570Z,19.58
2017-08-01T00:50:02.954Z,19.57
2017-08-01T00:51:00.221Z,19.56
2017-08-01T00:51:57.517Z,19.57
2017-08-01T00:52:54.795Z,19.58
2017-08-01T00:53:52.097Z,19.56
2017-08-01T00:54:49.320Z,19.54
2017-08-01T00:55:46.657Z,19.54
2017-08-01T00:56:43.921Z,19.54
2017-08-01T00:57:41.193Z,19.54
2017-08-01T00:58:38.468Z,19.53
2017-08-01T00:59:35.942Z,19.53
2017-08-01T01:00:33.197Z,19.53
2017-08-01T01:01:30.532Z,19.52
2017-08-01T01:02:27.785Z,19.52
2017-08-01T01:03:25.110Z,19.51
2017-08-01T01:04:22.387Z,19.51
2017-08-01T01:05:19.757Z,19.50
2017-08-01T01:06:17.049Z,19.50
2017-08-01T01:07:14.434Z,19.50
2017-08-01T01:08:11.718Z,19.49
2017-08-01T01:09:09.050Z,19.48
2017-08-01T01:10:06.329Z,19.47
2017-08-01T01:11:03.613Z,19.49
2017-08-01T01:12:00.877Z,19.47
2017-08-01T01:12:58.227Z,19.47
2017-08-01T01:13:55.537Z,19.47
2017-08-01T01:14:52.865Z,19.47
2017-08-01T01:15:50.121Z,19.45
2017-08-01T01:16:47.464Z,19.45
2017-08-01T01:17:44.733Z,19.45
2017-08-01T01:18:42.040Z,19.43
2017-08-01T01:19:39.316Z,19.43
2017-08-01T01:20:36.622Z,19.40
2017-08-01T01:21:33.861Z,19.40
2017-08-01T01:22:31.289Z,19.40
2017-08-01T01:23:28.684Z,19.40
2017-08-01T01:24:26.024Z,19.40
2017-08-01T01:25:23.297Z,19.39
2017-08-01T01:26:20.595Z,19.38
2017-08-01T01:27:17.854Z,19.39
2017-08-01T01:28:15.176Z,19.37
2017-08-01T01:29:12.481Z,19.36
2017-08-01T01:30:11.553Z,19.36
2017-08-01T01:31:08.820Z,19.35
2017-08-01T01:32:06.123Z,19.36
2017-08-01T01:33:03.401Z,19.36
2017-08-01T01:34:00.699Z,19.34
2017-08-01T01:34:57.958Z,19.34
2017-08-01T01:35:55.234Z,19.35
2017-08-01T01:36:52.628Z,19.33
2017-08-01T01:37:49.951Z,19.33
2017-08-01T01:38:47.209Z,19.32
2017-08-01T01:39:44.582Z,19.32
2017-08-01T01:40:41.902Z,19.31
2017-08-01T01:41:39.237Z,19.31
2017-08-01T01:42:36.494Z,19.31
2017-08-01T01:43:33.817Z,19.30
2017-08-01T01:44:31.093Z,19.30
2017-08-01T01:45:29.060Z,19.29
2017-08-01T01:46:26.322Z,19.29
2017-08-01T01:47:23.627Z,19.28
2017-08-01T01:48:20.946Z,19.28
2017-08-01T01:49:18.285Z,19.27
2017-08-01T01:50:15.552Z,19.27
2017-08-01T01:51:12.840Z,19.26
2017-08-01T01:52:10.108Z,19.27
2017-08-01T01:53:07.416Z,19.27
2017-08-01T01:54:04.671Z,19.25
2017-08-01T01:55:01.999Z,19.26
2017-08-01T01:55:59.305Z,19.23
2017-08-01T01:56:56.678Z,19.24
2017-08-01T01:57:53.914Z,19.22
2017-08-01T01:58:51.215Z,19.24
2017-08-01T01:59:48.584Z,19.21
2017-08-01T02:00:45.910Z,19.23
2017-08-01T02:01:43.213Z,19.23
2017-08-01T02:02:40.484Z,19.23
2017-08-01T02:03:37.733Z,19.20
2017-08-01T02:04:35.073Z,19.21
2017-08-01T02:05:32.340Z,19.19
2017-08-01T02:06:29.656Z,19.18
2017-08-01T02:07:26.916Z,19.18
2017-08-01T02:08:24.211Z,19.18
2017-08-01T02:09:21.497Z,19.17
2017-08-01T02:10:18.829Z,19.16
2017-08-01T02:11:16.174Z,19.16
2017-08-01T02:12:13.554Z,19.16
2017-08-01T02:13:10.841Z,19.17
2017-08-01T02:14:08.165Z,19.16
2017-08-01T02:15:05.480Z,19.15
2017-08-01T02:16:02.771Z,19.15
2017-08-01T02:17:00.059Z,19.15
2017-08-01T02:17:57.336Z,19.14
2017-08-01T02:18:54.609Z,19.15
2017-08-01T02:19:51.941Z,19.14
2017-08-01T02:20:49.239Z,19.14
2017-08-01T02:21:46.583Z,19.14
2017-08-01T02:22:43.840Z,19.14
2017-08-01T02:23:41.103Z,19.13
2017-08-01T02:24:38.353Z,19.13
2017-08-01T02:25:35.628Z,19.12
2017-08-01T02:26:32.869Z,19.12
2017-08-01T02:27:30.213Z,19.11
2017-08-01T02:28:27.504Z,19.10
2017-08-01T02:29:24.895Z,19.11
2017-08-01T02:30:22.143Z,19.11
2017-08-01T02:31:19.450Z,19.11
2017-08-01T02:32:16.692Z,19.10
2017-08-01T02:33:13.967Z,19.10
2017-08-01T02:34:11.236Z,19.10
2017-08-01T02:35:08.596Z,19.09
2017-08-01T02:36:05.918Z,19.08
2017-08-01T02:37:03.205Z,19.09
2017-08-01T02:38:00.469Z,19.08
2017-08-01T02:38:57.851Z,19.07
2017-08-01T02:39:55.138Z,19.07
2017-08-01T02:40:52.412Z,19.06
2017-08-01T02:41:49.683Z,19.06
2017-08-01T02:42:46.961Z,19.05
2017-08-01T02:43:44.209Z,19.06
2017-08-01T02:44:41.498Z,19.06
2017-08-01T02:45:38.773Z,19.05
2017-08-01T02:46:36.065Z,19.03
2017-08-01T02:47:33.305Z,19.01
2017-08-01T02:48:30.573Z,19.01
2017-08-01T02:49:27.831Z,19.00
2017-08-01T02:50:25.101Z,19.01
2017-08-01T02:51:22.406Z,18.98
2017-08-01T02:52:19.676Z,18.99
2017-08-01T02:53:16.937Z,18.98
2017-08-01T02:54:14.211Z,18.97
2017-08-01T02:55:11.469Z,18.98
2017-08-01T02:56:08.793Z,18.98
2017-08-01T02:57:06.069Z,18.98
2017-08-01T02:58:03.399Z,18.97
2017-08-01T02:59:00.740Z,18.98
2017-08-01T02:59:58.036Z,18.98
2017-08-01T03:00:55.293Z,18.96
2017-08-01T03:01:52.593Z,18.97
2017-08-01T03:02:49.894Z,18.96
2017-08-01T03:03:47.176Z,18.95
2017-08-01T03:04:44.428Z,18.95
2017-08-01T03:05:41.837Z,18.95
2017-08-01T03:06:39.188Z,18.94
2017-08-01T03:07:36.464Z,18.96
2017-08-01T03:08:33.708Z,18.94
2017-08-01T03:09:31.047Z,18.93
2017-08-01T03:10:28.306Z,18.94
2017-08-01T03:11:25.601Z,18.93
2017-08-01T03:12:22.890Z,18.94
2017-08-01T03:13:20.199Z,18.94
2017-08-01T03:14:17.484Z,18.93
2017-08-01T03:15:14.752Z,18.94
2017-08-01T03:16:12.060Z,18.94
2017-08-01T03:17:09.566Z,18.94
2017-08-01T03:18:06.873Z,18.95
2017-08-01T03:19:04.225Z,18.94
2017-08-01T03:20:01.473Z,18.95
2017-08-01T03:20:58.808Z,18.95
2017-08-01T03:21:56.106Z,18.94
2017-08-01T03:22:53.428Z,18.94
2017-08-01T03:23:50.665Z,18.93
2017-08-01T03:24:47.956Z,18.94
2017-08-01T03:25:45.268Z,18.93
2017-08-01T03:26:42.583Z,18.94
2017-08-01T03:27:39.986Z,18.94
2017-08-01T03:28:37.370Z,18.93
2017-08-01T03:29:34.764Z,18.92
2017-08-01T03:30:32.156Z,18.92
2017-08-01T03:31:29.540Z,18.91
2017-08-01T03:32:26.985Z,18.92
2017-08-01T03:33:24.297Z,18.91
2017-08-01T03:34:21.571Z,18.91
2017-08-01T03:35:18.889Z,18.90
2017-08-01T03:36:16.205Z,18.90
2017-08-01T03:37:13.505Z,18.89
2017-08-01T03:38:10.764Z,18.90
2017-08-01T03:39:08.088Z,18.89
2017-08-01T03:40:05.427Z,18.89
2017-08-01T03:41:02.667Z,18.88
2017-08-01T03:41:59.999Z,18.88
2017-08-01T03:42:57.288Z,18.87
2017-08-01T03:43:54.673Z,18.88
2017-08-01T03:44:52.090Z,18.87
2017-08-01T03:45:49.508Z,18.87
2017-08-01T03:46:46.815Z,18.87
2017-08-01T03:47:44.185Z,18.85
2017-08-01T03:48:41.497Z,18.85
2017-08-01T03:49:39.121Z,18.85
2017-08-01T03:50:36.576Z,18.86
2017-08-01T03:51:33.872Z,18.85
2017-08-01T03:52:31.182Z,18.86
2017-08-01T03:53:28.498Z,18.84
2017-08-01T03:54:25.790Z,18.83
2017-08-01T03:55:23.093Z,18.84
2017-08-01T03:56:20.365Z,18.84
2017-08-01T03:57:17.885Z,18.83
2017-08-01T03:58:15.126Z,18.84
2017-08-01T03:59:12.406Z,18.83
2017-08-01T04:00:09.654Z,18.83
2017-08-01T04:01:06.921Z,18.82
2017-08-01T04:02:04.193Z,18.82
2017-08-01T04:03:01.503Z,18.83
2017-08-01T04:03:58.838Z,18.81
2017-08-01T04:04:56.159Z,18.82
2017-08-01T04:05:53.397Z,18.80
2017-08-01T04:06:50.661Z,18.81
2017-08-01T04:07:47.905Z,18.81
2017-08-01T04:08:45.207Z,18.80
2017-08-01T04:09:42.489Z,18.80
2017-08-01T04:10:39.768Z,18.80
2017-08-01T04:11:37.036Z,18.80
2017-08-01T04:12:34.312Z,18.80
2017-08-01T04:13:31.573Z,18.80
2017-08-01T04:14:28.886Z,18.80
2017-08-01T04:15:26.178Z,18.80
2017-08-01T04:16:23.545Z,18.80
2017-08-01T04:17:20.796Z,18.78
2017-08-01T04:18:18.100Z,18.78
2017-08-01T04:19:15.370Z,18.77
2017-08-01T04:20:12.620Z,18.78
2017-08-01T04:21:10.292Z,18.78
2017-08-01T04:22:07.634Z,18.76
2017-08-01T04:23:04.912Z,18.77
2017-08-01T04:24:02.218Z,18.77
2017-08-01T04:24:59.465Z,18.76
2017-08-01T04:25:56.853Z,18.75
2017-08-01T04:26:54.168Z,18.76
2017-08-01T04:27:51.524Z,18.75
2017-08-01T04:28:48.790Z,18.74
2017-08-01T04:29:46.096Z,18.75
2017-08-01T04:30:43.412Z,18.73
2017-08-01T04:31:40.718Z,18.74
2017-08-01T04:32:37.964Z,18.75
2017-08-01T04:33:35.306Z,18.75
2017-08-01T04:34:32.556Z,18.75
2017-08-01T04:35:29.822Z,18.74
2017-08-01T04:36:27.113Z,18.74
2017-08-01T04:37:24.428Z,18.74
2017-08-01T04:38:21.685Z,18.73
2017-08-01T04:39:19.016Z,18.74
2017-08-01T04:40:16.258Z,18.73
2017-08-01T04:41:13.560Z,18.73
2017-08-01T04:42:10.794Z,18.73
2017-08-01T04:43:08.062Z,18.73
2017-08-01T04:44:05.344Z,18.73
2017-08-01T04:45:02.657Z,18.71
2017-08-01T04:45:59.965Z,18.72
2017-08-01T04:46:57.264Z,18.73
2017-08-01T04:47:54.576Z,18.71
2017-08-01T04:48:51.842Z,18.71
2017-08-01T04:49:49.105Z,18.70
2017-08-01T04:50:46.410Z,18.71
2017-08-01T04:51:43.775Z,18.71
2017-08-01T04:52:41.156Z,18.70
2017-08-01T04:53:38.434Z,18.70
2017-08-01T04:54:35.733Z,18.68
2017-08-01T04:55:33.106Z,18.68
2017-08-01T04:56:30.417Z,18.68
2017-08-01T04:57:27.774Z,18.68
2017-08-01T04:58:25.065Z,18.70
2017-08-01T04:59:22.350Z,18.68
2017-08-01T05:00:19.617Z,18.68
2017-08-01T05:01:16.892Z,18.68
2017-08-01T05:02:14.159Z,18.67
2017-08-01T05:03:11.414Z,18.68
2017-08-01T05:04:09.325Z,18.68
2017-08-01T05:05:06.716Z,18.68
2017-08-01T05:06:04.020Z,18.66
2017-08-01T05:07:01.324Z,18.67
2017-08-01T05:07:58.686Z,18.68
2017-08-01T05:08:55.944Z,18.68
2017-08-01T05:09:53.357Z,18.67
2017-08-01T05:10:50.680Z,18.67
2017-08-01T05:11:47.940Z,18.66
2017-08-01T05:12:45.196Z,18.67
2017-08-01T05:13:42.538Z,18.67
2017-08-01T05:14:39.801Z,18.67
2017-08-01T05:15:37.064Z,18.67
2017-08-01T05:16:34.317Z,18.66
2017-08-01T05:17:31.604Z,18.66
2017-08-01T05:18:28.855Z,18.66
2017-08-01T05:19:26.145Z,18.67
2017-08-01T05:20:23.400Z,18.66
2017-08-01T05:21:20.668Z,18.65
2017-08-01T05:22:18.007Z,18.65
2017-08-01T05:23:15.416Z,18.66
2017-08-01T05:24:12.643Z,18.66
2017-08-01T05:25:09.953Z,18.67
2017-08-01T05:26:07.208Z,18.66
2017-08-01T05:27:04.530Z,18.66
2017-08-01T05:28:01.810Z,18.66
2017-08-01T05:28:59.097Z,18.65
2017-08-01T05:29:56.412Z,18.67
2017-08-01T05:30:53.696Z,18.66
2017-08-01T05:31:50.974Z,18.66
2017-08-01T05:32:48.277Z,18.65
2017-08-01T05:33:45.536Z,18.65
2017-08-01T05:34:42.791Z,18.65
2017-08-01T05:35:40.070Z,18.64
2017-08-01T05:36:37.331Z,18.65
2017-08-01T05:37:34.632Z,18.65
2017-08-01T05:38:31.892Z,18.64
2017-08-01T05:39:29.133Z,18.63
2017-08-01T05:40:26.465Z,18.63
2017-08-01T05:41:23.729Z,18.62
2017-08-01T05:42:21.001Z,18.62
2017-08-01T05:43:18.247Z,18.63
2017-08-01T05:44:15.517Z,18.62
2017-08-01T05:45:12.835Z,18.61
2017-08-01T05:46:10.174Z,18.62
2017-08-01T05:47:07.426Z,18.62
2017-08-01T05:48:04.679Z,18.63
2017-08-01T05:49:01.927Z,18.63
2017-08-01T05:49:59.192Z,18.62
2017-08-01T05:50:56.460Z,18.64
2017-08-01T05:51:53.769Z,18.63
2017-08-01T05:52:51.040Z,18.64
2017-08-01T05:53:48.328Z,18.64
2017-08-01T05:54:45.569Z,18.64
2017-08-01T05:55:42.844Z,18.64
2017-08-01T05:56:40.091Z,18.65
2017-08-01T05:57:37.384Z,18.63
2017-08-01T05:58:34.656Z,18.65
2017-08-01T05:59:31.964Z,18.66
2017-08-01T06:00:29.221Z,18.64
2017-08-01T06:01:26.501Z,18.65
2017-08-01T06:02:23.780Z,18.64
2017-08-01T06:03:21.109Z,18.63
2017-08-01T06:04:18.364Z,18.64
2017-08-01T06:05:15.632Z,18.64
2017-08-01T06:06:12.886Z,18.63
2017-08-01T06:07:10.172Z,18.64
2017-08-01T06:08:07.422Z,18.64
2017-08-01T06:09:04.716Z,18.62
2017-08-01T06:10:01.991Z,18.65
2017-08-01T06:10:59.406Z,18.64
2017-08-01T06:11:56.655Z,18.62
2017-08-01T06:12:53.987Z,18.63
2017-08-01T06:13:51.254Z,18.63
2017-08-01T06:14:48.540Z,18.64
2017-08-01T06:15:47.912Z,18.62
2017-08-01T06:16:45.199Z,18.63
2017-08-01T06:17:42.520Z,18.63
2017-08-01T06:18:39.758Z,18.64
2017-08-01T06:19:37.185Z,18.62
2017-08-01T06:20:34.461Z,18.64
2017-08-01T06:21:31.757Z,18.64
2017-08-01T06:22:29.011Z,18.64
2017-08-01T06:23:26.328Z,18.62
2017-08-01T06:24:23.597Z,18.63
2017-08-01T06:25:20.892Z,18.64
2017-08-01T06:26:18.248Z,18.63
2017-08-01T06:27:17.572Z,18.63
2017-08-01T06:28:14.819Z,18.64
2017-08-01T06:29:12.089Z,18.62
2017-08-01T06:30:09.369Z,18.64
2017-08-01T06:31:06.704Z,18.64
2017-08-01T06:32:04.041Z,18.64
2017-08-01T06:33:01.513Z,18.65
2017-08-01T06:33:58.898Z,18.64
2017-08-01T06:34:56.167Z,18.64
2017-08-01T06:35:53.436Z,18.65
2017-08-01T06:36:50.877Z,18.66
2017-08-01T06:37:48.148Z,18.64
2017-08-01T06:38:45.438Z,18.65
2017-08-01T06:39:42.760Z,18.65
2017-08-01T06:40:42.215Z,18.66
2017-08-01T06:41:39.520Z,18.66
2017-08-01T06:42:36.886Z,18.67
2017-08-01T06:43:34.148Z,18.66
2017-08-01T06:44:31.521Z,18.67
2017-08-01T06:45:28.865Z,18.67
2017-08-01T06:46:26.268Z,18.66
2017-08-01T06:47:23.571Z,18.66
2017-08-01T06:48:20.885Z,18.65
2017-08-01T06:49:18.153Z,18.66
2017-08-01T06:50:15.494Z,18.66
2017-08-01T06:51:12.820Z,18.67
2017-08-01T06:52:10.163Z,18.67
2017-08-01T06:53:07.512Z,18.67
2017-08-01T06:54:04.855Z,18.66
2017-08-01T06:55:02.141Z,18.67
2017-08-01T06:55:59.552Z,18.67
2017-08-01T06:56:56.796Z,18.67
2017-08-01T06:57:54.232Z,18.69
2017-08-01T06:58:51.496Z,18.70
2017-08-01T06:59:48.834Z,18.68
2017-08-01T07:00:46.157Z,18.68
2017-08-01T07:01:43.553Z,18.68
2017-08-01T07:02:40.858Z,18.69
2017-08-01T07:03:38.136Z,18.67
2017-08-01T07:04:35.367Z,18.69
2017-08-01T07:05:32.709Z,18.70
2017-08-01T07:06:30.013Z,18.68
2017-08-01T07:07:27.343Z,18.68
2017-08-01T07:08:24.694Z,18.70
2017-08-01T07:09:21.980Z,18.69
2017-08-01T07:10:19.236Z,18.68
2017-08-01T07:11:16.548Z,18.68
2017-08-01T07:12:13.876Z,18.68
2017-08-01T07:13:11.193Z,18.69
2017-08-01T07:14:10.520Z,18.68
2017-08-01T07:15:07.780Z,18.69
2017-08-01T07:16:05.072Z,18.69
2017-08-01T07:17:02.387Z,18.69
2017-08-01T07:17:59.675Z,18.70
2017-08-01T07:18:56.955Z,18.68
2017-08-01T07:19:54.193Z,18.69
2017-08-01T07:20:51.566Z,18.69
2017-08-01T07:21:48.858Z,18.69
2017-08-01T07:22:46.248Z,18.70
2017-08-01T07:23:43.518Z,18.71
2017-08-01T07:24:40.800Z,18.70
2017-08-01T07:25:38.073Z,18.69
2017-08-01T07:26:35.378Z,18.70
2017-08-01T07:27:32.643Z,18.71
2017-08-01T07:28:29.988Z,18.70
2017-08-01T07:29:27.281Z,18.71
2017-08-01T07:30:24.577Z,18.71
2017-08-01T07:31:21.826Z,18.72
2017-08-01T07:32:19.113Z,18.71
2017-08-01T07:33:16.380Z,18.72
2017-08-01T07:34:13.637Z,18.70
2017-08-01T07:35:10.882Z,18.71
2017-08-01T07:36:08.178Z,18.71
2017-08-01T07:37:05.465Z,18.71
2017-08-01T07:38:02.931Z,18.69
2017-08-01T07:39:00.218Z,18.70
2017-08-01T07:39:57.484Z,18.70
2017-08-01T07:40:54.786Z,18.69
2017-08-01T07:41:52.096Z,18.69
2017-08-01T07:42:49.346Z,18.70
2017-08-01T07:43:46.752Z,18.69
2017-08-01T07:44:44.008Z,18.68
2017-08-01T07:45:41.389Z,18.69
2017-08-01T07:46:38.657Z,18.68
2017-08-01T07:47:41.151Z,18.68
2017-08-01T07:48:38.457Z,18.68
2017-08-01T07:49:35.737Z,18.67
2017-08-01T07:50:33.008Z,18.68
2017-08-01T07:51:30.293Z,18.66
2017-08-01T07:52:27.595Z,18.67
2017-08-01T07:53:24.848Z,18.68
2017-08-01T07:54:22.142Z,18.68
2017-08-01T07:55:19.478Z,18.69
2017-08-01T07:56:16.749Z,18.68
2017-08-01T07:57:14.067Z,18.69
2017-08-01T07:58:11.417Z,18.70
2017-08-01T07:59:08.742Z,18.68
2017-08-01T08:00:06.016Z,18.70
2017-08-01T08:01:03.290Z,18.70
2017-08-01T08:02:00.610Z,18.69
2017-08-01T08:02:57.904Z,18.71
2017-08-01T08:03:55.227Z,18.71
2017-08-01T08:04:52.486Z,18.71
2017-08-01T08:05:49.789Z,18.71
2017-08-01T08:06:47.063Z,18.71
2017-08-01T08:07:44.408Z,18.71
2017-08-01T08:08:41.652Z,18.72
2017-08-01T08:09:38.952Z,18.71
2017-08-01T08:10:36.281Z,18.71
2017-08-01T08:11:33.596Z,18.71
2017-08-01T08:12:30.868Z,18.73
2017-08-01T08:13:28.173Z,18.71
2017-08-01T08:14:25.500Z,18.71
2017-08-01T08:15:22.757Z,18.71
2017-08-01T08:16:20.020Z,18.71
2017-08-01T08:17:17.305Z,18.71
2017-08-01T08:18:14.569Z,18.72
2017-08-01T08:19:11.892Z,18.72
2017-08-01T08:20:09.168Z,18.72
2017-08-01T08:21:06.454Z,18.71
2017-08-01T08:22:03.693Z,18.71
2017-08-01T08:23:00.987Z,18.72
2017-08-01T08:23:58.222Z,18.72
2017-08-01T08:24:55.542Z,18.71
2017-08-01T08:25:52.788Z,18.73
2017-08-01T08:26:50.084Z,18.73
2017-08-01T08:27:47.372Z,18.73
2017-08-01T08:28:44.707Z,18.73
2017-08-01T08:29:41.984Z,18.73
2017-08-01T08:30:39.298Z,18.74
2017-08-01T08:31:36.621Z,18.73
2017-08-01T08:32:33.905Z,18.74
2017-08-01T08:33:31.184Z,18.73
2017-08-01T08:34:28.659Z,18.74
2017-08-01T08:35:25.945Z,18.73
2017-08-01T08:36:23.213Z,18.75
2017-08-01T08:37:20.545Z,18.74
2017-08-01T08:38:17.844Z,18.74
2017-08-01T08:39:15.198Z,18.75
2017-08-01T08:40:12.492Z,18.75
2017-08-01T08:41:09.752Z,18.74
2017-08-01T08:42:07.153Z,18.74
2017-08-01T08:43:04.434Z,18.75
2017-08-01T08:44:01.764Z,18.76
2017-08-01T08:44:59.045Z,18.75
2017-08-01T08:45:56.565Z,18.76
2017-08-01T08:46:53.831Z,18.76
2017-08-01T08:47:51.142Z,18.77
2017-08-01T08:48:48.472Z,18.77
2017-08-01T08:49:45.933Z,18.78
2017-08-01T08:50:43.353Z,18.78
2017-08-01T08:51:40.664Z,18.80
2017-08-01T08:52:37.948Z,18.80
2017-08-01T08:53:35.534Z,18.80
2017-08-01T08:54:32.933Z,18.82
2017-08-01T08:55:30.305Z,18.83
2017-08-01T08:56:27.592Z,18.83
2017-08-01T08:57:24.887Z,18.84
2017-08-01T08:58:22.242Z,18.85
2017-08-01T08:59:19.557Z,18.86
2017-08-01T09:00:16.824Z,18.87
2017-08-01T09:01:14.273Z,18.87
2017-08-01T09:02:11.540Z,18.88
2017-08-01T09:03:08.796Z,18.89
2017-08-01T09:04:06.142Z,18.89
2017-08-01T09:05:03.574Z,18.90
2017-08-01T09:06:00.907Z,18.91
2017-08-01T09:06:58.225Z,18.93
2017-08-01T09:07:55.525Z,18.93
2017-08-01T09:08:52.892Z,18.94
2017-08-01T09:09:50.179Z,18.95
2017-08-01T09:10:47.476Z,18.95
2017-08-01T09:11:44.751Z,18.95
2017-08-01T09:12:42.038Z,18.97
2017-08-01T09:13:39.351Z,18.98
2017-08-01T09:14:36.640Z,18.98
2017-08-01T09:15:33.969Z,18.98
2017-08-01T09:16:31.258Z,18.99
2017-08-01T09:17:28.553Z,19.00
2017-08-01T09:18:25.871Z,19.01
2017-08-01T09:19:23.133Z,19.01
2017-08-01T09:20:20.478Z,19.03
2017-08-01T09:21:17.794Z,19.01
2017-08-01T09:22:15.104Z,19.05
2017-08-01T09:23:12.401Z,19.04
2017-08-01T09:24:09.744Z,19.06
2017-08-01T09:25:07.049Z,19.07
2017-08-01T09:26:04.366Z,19.07
2017-08-01T09:27:01.601Z,19.08
2017-08-01T09:27:58.874Z,19.08
2017-08-01T09:28:56.158Z,19.09
2017-08-01T09:29:53.435Z,19.10
2017-08-01T09:30:50.769Z,19.12
2017-08-01T09:31:48.101Z,19.11
2017-08-01T09:32:45.412Z,19.12
2017-08-01T09:33:42.773Z,19.12
2017-08-01T09:34:40.030Z,19.14
2017-08-01T09:35:37.309Z,19.15
2017-08-01T09:36:34.664Z,19.15
2017-08-01T09:37:31.988Z,19.16
2017-08-01T09:38:29.240Z,19.17
2017-08-01T09:39:26.501Z,19.17
2017-08-01T09:40:23.761Z,19.19
2017-08-01T09:41:21.065Z,19.19
2017-08-01T09:42:18.336Z,19.21
2017-08-01T09:43:15.772Z,19.20
2017-08-01T09:44:13.073Z,19.23
2017-08-01T09:45:10.462Z,19.21
2017-08-01T09:46:07.765Z,19.22
2017-08-01T09:47:05.122Z,19.24
2017-08-01T09:48:02.478Z,19.24
2017-08-01T09:48:59.821Z,19.26
2017-08-01T09:49:57.072Z,19.26
2017-08-01T09:50:54.416Z,19.27
2017-08-01T09:51:51.889Z,19.28
2017-08-01T09:52:49.213Z,19.28
2017-08-01T09:53:46.533Z,19.28
2017-08-01T09:54:43.872Z,19.29
2017-08-01T09:55:41.216Z,19.29
2017-08-01T09:56:38.542Z,19.31
2017-08-01T09:57:35.793Z,19.32
2017-08-01T09:58:33.048Z,19.31
2017-08-01T09:59:30.275Z,19.33
2017-08-01T10:00:27.646Z,19.34
2017-08-01T10:01:24.964Z,19.36
2017-08-01T10:02:22.278Z,19.36
2017-08-01T10:03:19.545Z,19.36
2017-08-01T10:04:16.877Z,19.38
2017-08-01T10:05:14.125Z,19.38
2017-08-01T10:06:11.412Z,19.39
2017-08-01T10:07:08.676Z,19.39
2017-08-01T10:08:05.961Z,19.41
2017-08-01T10:09:03.209Z,19.42
2017-08-01T10:10:00.468Z,19.44
2017-08-01T10:10:57.731Z,19.42
2017-08-01T10:11:55.039Z,19.45
2017-08-01T10:12:52.285Z,19.44
2017-08-01T10:13:49.567Z,19.45
2017-08-01T10:14:46.802Z,19.46
2017-08-01T10:15:44.152Z,19.47
2017-08-01T10:16:41.461Z,19.46
2017-08-01T10:17:38.793Z,19.49
2017-08-01T10:18:36.048Z,19.48
2017-08-01T10:19:33.312Z,19.49
2017-08-01T10:20:30.563Z,19.49
2017-08-01T10:21:27.856Z,19.49
2017-08-01T10:22:25.117Z,19.50
2017-08-01T10:23:22.413Z,19.50
2017-08-01T10:24:19.686Z,19.51
2017-08-01T10:25:17.092Z,19.51
2017-08-01T10:26:14.351Z,19.53
2017-08-01T10:27:11.689Z,19.53
2017-08-01T10:28:08.995Z,19.53
2017-08-01T10:29:06.255Z,19.54
2017-08-01T10:30:03.524Z,19.55
2017-08-01T10:31:00.888Z,19.57
2017-08-01T10:31:58.138Z,19.56
2017-08-01T10:32:55.477Z,19.58
2017-08-01T10:33:52.733Z,19.58
2017-08-01T10:34:50.022Z,19.58
2017-08-01T10:35:47.284Z,19.58
2017-08-01T10:36:44.552Z,19.59
2017-08-01T10:37:41.822Z,19.59
2017-08-01T10:38:39.089Z,19.59
2017-08-01T10:39:36.333Z,19.59
2017-08-01T10:40:33.605Z,19.60
2017-08-01T10:41:30.848Z,19.60
2017-08-01T10:42:28.162Z,19.60
2017-08-01T10:43:25.440Z,19.60
2017-08-01T10:44:22.746Z,19.60
2017-08-01T10:45:19.991Z,19.61
2017-08-01T10:46:17.257Z,19.61
2017-08-01T10:47:15.739Z,19.60
2017-08-01T10:48:13.073Z,19.61
2017-08-01T10:49:10.305Z,19.60
2017-08-01T10:50:07.603Z,19.59
2017-08-01T10:51:04.872Z,19.61
2017-08-01T10:52:02.270Z,19.60
2017-08-01T10:52:59.659Z,19.61
2017-08-01T10:53:59.121Z,19.61
2017-08-01T10:54:56.384Z,19.62
2017-08-01T10:55:53.680Z,19.61
2017-08-01T10:56:51.000Z,19.60
2017-08-01T10:57:48.277Z,19.62
2017-08-01T10:58:45.543Z,19.64
2017-08-01T10:59:42.845Z,19.64
2017-08-01T11:00:40.131Z,19.63
2017-08-01T11:01:37.409Z,19.64
2017-08-01T11:02:34.684Z,19.64
2017-08-01T11:03:31.984Z,19.65
2017-08-01T11:04:29.232Z,19.65
2017-08-01T11:05:26.512Z,19.65
2017-08-01T11:06:23.745Z,19.65
2017-08-01T11:07:21.019Z,19.66
2017-08-01T11:08:18.322Z,19.67
2017-08-01T11:09:15.625Z,19.66
2017-08-01T11:10:12.933Z,19.67
2017-08-01T11:11:10.234Z,19.67
2017-08-01T11:12:07.500Z,19.67
2017-08-01T11:13:04.810Z,19.67
2017-08-01T11:14:02.077Z,19.68
2017-08-01T11:14:59.367Z,19.69
2017-08-01T11:15:56.618Z,19.68
2017-08-01T11:16:53.897Z,19.70
2017-08-01T11:17:51.129Z,19.70
2017-08-01T11:18:48.414Z,19.69
2017-08-01T11:19:45.684Z,19.70
2017-08-01T11:20:42.955Z,19.69
2017-08-01T11:21:40.213Z,19.68
2017-08-01T11:22:37.481Z,19.70
2017-08-01T11:23:34.741Z,19.71
2017-08-01T11:24:32.037Z,19.70
2017-08-01T11:25:29.287Z,19.70
2017-08-01T11:26:26.547Z,19.71
2017-08-01T11:27:23.784Z,19.71
2017-08-01T11:28:21.140Z,19.70
2017-08-01T11:29:18.406Z,19.70
2017-08-01T11:30:15.669Z,19.70
2017-08-01T11:31:12.933Z,19.72
2017-08-01T11:32:10.186Z,19.70
2017-08-01T11:33:07.428Z,19.70
2017-08-01T11:34:04.776Z,19.70
2017-08-01T11:35:02.063Z,19.71
2017-08-01T11:35:59.359Z,19.71
2017-08-01T11:36:56.654Z,19.72
2017-08-01T11:37:53.977Z,19.72
2017-08-01T11:38:51.236Z,19.73
2017-08-01T11:39:48.624Z,19.74
2017-08-01T11:40:45.880Z,19.74
2017-08-01T11:41:43.192Z,19.75
2017-08-01T11:42:40.456Z,19.75
2017-08-01T11:43:37.718Z,19.75
2017-08-01T11:44:34.986Z,19.76
2017-08-01T11:45:32.264Z,19.76
2017-08-01T11:46:29.563Z,19.76
2017-08-01T11:47:26.857Z,19.77
2017-08-01T11:48:24.136Z,19.77
2017-08-01T11:49:21.453Z,19.78
2017-08-01T11:50:18.749Z,19.79
2017-08-01T11:51:16.054Z,19.79
2017-08-01T11:52:13.300Z,19.80
2017-08-01T11:53:10.588Z,19.81
2017-08-01T11:54:07.853Z,19.81
2017-08-01T11:55:05.214Z,19.82
2017-08-01T11:56:02.502Z,19.83
2017-08-01T11:56:59.804Z,19.84
2017-08-01T11:57:57.072Z,19.84
2017-08-01T11:58:54.375Z,19.84
2017-08-01T11:59:51.728Z,19.85
2017-08-01T12:00:49.020Z,19.87
2017-08-01T12:01:46.366Z,19.87
2017-08-01T12:02:43.644Z,19.88
2017-08-01T12:03:40.884Z,19.89
2017-08-01T12:04:38.172Z,19.89
2017-08-01T12:05:35.509Z,19.90
2017-08-01T12:06:32.796Z,19.90
2017-08-01T12:07:30.097Z,19.91
2017-08-01T12:08:27.455Z,19.91
2017-08-01T12:09:24.743Z,19.91
2017-08-01T12:10:22.065Z,19.91
2017-08-01T12:11:19.374Z,19.92
2017-08-01T12:12:16.644Z,19.92
2017-08-01T12:13:13.912Z,19.93
2017-08-01T12:14:11.198Z,19.94
2017-08-01T12:15:08.476Z,19.94
2017-08-01T12:16:05.781Z,19.93
2017-08-01T12:17:03.082Z,19.94
2017-08-01T12:18:00.451Z,19.95